sensor_id;sensor_type;location;lat;lon;timestamp;pressure;altitude;pressure_sealevel;temperature;humidity
64294;BME280;50636;45.596;5.258;2022-11-03T00:02:12;99088.69;;;9.98;77.16
64294;BME280;50636;45.596;5.258;2022-11-03T00:04:38;99087.22;;;10.17;76.55
64294;BME280;50636;45.596;5.258;2022-11-03T00:07:04;99095.41;;;10.29;76.14
64294;BME280;50636;45.596;5.258;2022-11-03T00:09:30;99083.63;;;10.40;76.06
64294;BME280;50636;45.596;5.258;2022-11-03T00:11:56;99078.66;;;10.52;75.54
64294;BME280;50636;45.596;5.258;2022-11-03T00:14:21;99074.91;;;10.61;74.93
64294;BME280;50636;45.596;5.258;2022-11-03T00:16:47;99065.84;;;10.64;74.72
64294;BME280;50636;45.596;5.258;2022-11-03T00:19:13;99066.59;;;10.57;74.33
64294;BME280;50636;45.596;5.258;2022-11-03T00:21:41;99064.38;;;10.54;74.34
64294;BME280;50636;45.596;5.258;2022-11-03T00:24:07;99074.63;;;10.49;74.11
64294;BME280;50636;45.596;5.258;2022-11-03T00:26:34;99072.25;;;10.54;74.73
64294;BME280;50636;45.596;5.258;2022-11-03T00:29:06;99071.09;;;10.64;74.54
64294;BME280;50636;45.596;5.258;2022-11-03T00:31:34;99070.75;;;10.73;74.75
64294;BME280;50636;45.596;5.258;2022-11-03T00:34:01;99071.97;;;11.06;74.99
64294;BME280;50636;45.596;5.258;2022-11-03T00:36:29;99074.97;;;11.44;74.04
64294;BME280;50636;45.596;5.258;2022-11-03T00:38:55;99066.78;;;11.67;73.22
64294;BME280;50636;45.596;5.258;2022-11-03T00:41:22;99072.84;;;11.74;71.90
64294;BME280;50636;45.596;5.258;2022-11-03T00:43:49;99064.97;;;11.81;71.16
64294;BME280;50636;45.596;5.258;2022-11-03T00:46:15;99068.63;;;11.73;70.92
64294;BME280;50636;45.596;5.258;2022-11-03T00:48:41;99064.16;;;11.67;70.18
64294;BME280;50636;45.596;5.258;2022-11-03T00:51:10;99067.53;;;11.48;70.24
64294;BME280;50636;45.596;5.258;2022-11-03T00:53:47;99062.88;;;11.43;71.03
64294;BME280;50636;45.596;5.258;2022-11-03T00:56:17;99057.00;;;11.48;71.06
64294;BME280;50636;45.596;5.258;2022-11-03T00:58:43;99052.38;;;11.56;70.88
64294;BME280;50636;45.596;5.258;2022-11-03T01:01:12;99042.69;;;11.64;70.83
64294;BME280;50636;45.596;5.258;2022-11-03T01:03:40;99035.81;;;11.63;70.39
64294;BME280;50636;45.596;5.258;2022-11-03T01:06:08;99033.41;;;11.74;70.29
64294;BME280;50636;45.596;5.258;2022-11-03T01:08:52;99030.38;;;11.64;69.59
64294;BME280;50636;45.596;5.258;2022-11-03T01:11:22;99028.28;;;11.39;69.23
64294;BME280;50636;45.596;5.258;2022-11-03T01:14:08;99031.78;;;11.12;70.01
64294;BME280;50636;45.596;5.258;2022-11-03T01:16:34;99024.91;;;10.69;71.12
64294;BME280;50636;45.596;5.258;2022-11-03T01:19:00;99024.34;;;10.46;72.55
64294;BME280;50636;45.596;5.258;2022-11-03T01:21:26;99024.69;;;10.14;74.42
64294;BME280;50636;45.596;5.258;2022-11-03T01:23:52;99018.81;;;9.91;76.13
64294;BME280;50636;45.596;5.258;2022-11-03T01:26:18;99012.63;;;9.77;77.64
64294;BME280;50636;45.596;5.258;2022-11-03T01:28:45;99011.06;;;9.61;78.63
64294;BME280;50636;45.596;5.258;2022-11-03T01:31:17;99002.75;;;9.57;78.96
64294;BME280;50636;45.596;5.258;2022-11-03T01:33:44;99001.72;;;9.52;80.02
64294;BME280;50636;45.596;5.258;2022-11-03T01:36:11;99002.06;;;9.49;80.27
64294;BME280;50636;45.596;5.258;2022-11-03T01:38:38;98992.50;;;9.41;80.18
64294;BME280;50636;45.596;5.258;2022-11-03T01:41:07;98997.69;;;9.34;80.45
64294;BME280;50636;45.596;5.258;2022-11-03T01:43:34;98995.88;;;9.35;80.32
64294;BME280;50636;45.596;5.258;2022-11-03T01:46:07;99003.72;;;9.35;80.33
64294;BME280;50636;45.596;5.258;2022-11-03T01:48:47;98985.94;;;9.30;80.28
64294;BME280;50636;45.596;5.258;2022-11-03T01:51:18;98990.28;;;9.23;80.49
64294;BME280;50636;45.596;5.258;2022-11-03T01:53:47;98986.69;;;9.24;80.95
64294;BME280;50636;45.596;5.258;2022-11-03T01:56:15;98983.56;;;9.35;81.68
64294;BME280;50636;45.596;5.258;2022-11-03T01:58:42;98969.56;;;9.65;82.23
64294;BME280;50636;45.596;5.258;2022-11-03T02:01:11;98963.75;;;9.91;82.12
64294;BME280;50636;45.596;5.258;2022-11-03T02:03:40;98959.41;;;9.98;80.96
64294;BME280;50636;45.596;5.258;2022-11-03T02:06:08;98948.25;;;9.96;80.72
64294;BME280;50636;45.596;5.258;2022-11-03T02:08:42;98943.97;;;9.88;80.11
64294;BME280;50636;45.596;5.258;2022-11-03T02:11:12;98946.47;;;9.75;80.22
64294;BME280;50636;45.596;5.258;2022-11-03T02:13:56;98941.53;;;9.87;81.18
64294;BME280;50636;45.596;5.258;2022-11-03T02:16:24;98933.59;;;10.02;80.33
64294;BME280;50636;45.596;5.258;2022-11-03T02:18:52;98926.13;;;9.98;79.87
64294;BME280;50636;45.596;5.258;2022-11-03T02:21:52;98917.19;;;10.21;81.43
64294;BME280;50636;45.596;5.258;2022-11-03T02:24:30;98915.53;;;10.48;79.61
64294;BME280;50636;45.596;5.258;2022-11-03T02:27:00;98912.41;;;10.66;78.96
64294;BME280;50636;45.596;5.258;2022-11-03T02:29:26;98904.38;;;10.74;78.43
64294;BME280;50636;45.596;5.258;2022-11-03T02:32:03;98899.53;;;10.71;77.74
64294;BME280;50636;45.596;5.258;2022-11-03T02:34:44;98887.44;;;10.84;78.62
64294;BME280;50636;45.596;5.258;2022-11-03T02:37:22;98886.16;;;11.28;78.34
64294;BME280;50636;45.596;5.258;2022-11-03T02:40:02;98882.75;;;11.67;77.29
64294;BME280;50636;45.596;5.258;2022-11-03T02:42:30;98889.00;;;12.06;76.85
64294;BME280;50636;45.596;5.258;2022-11-03T02:44:59;98882.25;;;12.37;75.10
64294;BME280;50636;45.596;5.258;2022-11-03T02:47:27;98881.81;;;12.60;74.56
64294;BME280;50636;45.596;5.258;2022-11-03T02:49:54;98883.31;;;12.88;73.31
64294;BME280;50636;45.596;5.258;2022-11-03T02:55:06;98884.00;;;12.70;70.53
64294;BME280;50636;45.596;5.258;2022-11-03T02:57:36;98869.94;;;12.31;70.95
64294;BME280;50636;45.596;5.258;2022-11-03T03:00:06;98873.84;;;12.08;71.93
64294;BME280;50636;45.596;5.258;2022-11-03T03:02:50;98864.53;;;12.12;73.11
64294;BME280;50636;45.596;5.258;2022-11-03T03:05:20;98867.91;;;12.39;72.34
64294;BME280;50636;45.596;5.258;2022-11-03T03:07:52;98865.28;;;12.39;70.53
64294;BME280;50636;45.596;5.258;2022-11-03T03:10:23;98865.88;;;12.35;70.70
64294;BME280;50636;45.596;5.258;2022-11-03T03:12:54;98854.31;;;12.43;70.25
64294;BME280;50636;45.596;5.258;2022-11-03T03:15:28;98851.72;;;12.29;70.04
64294;BME280;50636;45.596;5.258;2022-11-03T03:21:23;98834.41;;;11.28;70.98
64294;BME280;50636;45.596;5.258;2022-11-03T03:24:00;98821.38;;;10.80;71.58
64294;BME280;50636;45.596;5.258;2022-11-03T03:26:29;98821.81;;;10.77;73.63
64294;BME280;50636;45.596;5.258;2022-11-03T03:29:13;98823.44;;;10.91;74.22
64294;BME280;50636;45.596;5.258;2022-11-03T03:31:43;98817.00;;;11.07;74.50
64294;BME280;50636;45.596;5.258;2022-11-03T03:34:13;98815.41;;;11.26;73.24
64294;BME280;50636;45.596;5.258;2022-11-03T03:36:42;98819.03;;;11.05;72.68
64294;BME280;50636;45.596;5.258;2022-11-03T03:39:10;98810.72;;;10.88;72.69
64294;BME280;50636;45.596;5.258;2022-11-03T03:41:39;98808.44;;;10.65;72.91
64294;BME280;50636;45.596;5.258;2022-11-03T03:44:07;98809.59;;;10.49;73.81
64294;BME280;50636;45.596;5.258;2022-11-03T03:46:38;98811.25;;;10.70;75.12
64294;BME280;50636;45.596;5.258;2022-11-03T03:49:06;98816.19;;;11.00;75.00
64294;BME280;50636;45.596;5.258;2022-11-03T03:51:33;98818.44;;;11.10;74.06
64294;BME280;50636;45.596;5.258;2022-11-03T03:53:59;98812.75;;;10.99;73.59
64294;BME280;50636;45.596;5.258;2022-11-03T03:59:03;98812.16;;;10.97;73.02
64294;BME280;50636;45.596;5.258;2022-11-03T04:01:28;98809.09;;;10.81;73.40
64294;BME280;50636;45.596;5.258;2022-11-03T04:03:54;98806.63;;;10.72;74.93
64294;BME280;50636;45.596;5.258;2022-11-03T04:06:20;98801.03;;;10.89;75.09
64294;BME280;50636;45.596;5.258;2022-11-03T04:08:45;98796.34;;;10.84;74.64
64294;BME280;50636;45.596;5.258;2022-11-03T04:11:11;98793.34;;;10.87;74.69
64294;BME280;50636;45.596;5.258;2022-11-03T04:13:55;98794.75;;;10.96;74.75
64294;BME280;50636;45.596;5.258;2022-11-03T04:16:39;98781.25;;;11.26;75.21
64294;BME280;50636;45.596;5.258;2022-11-03T04:19:23;98781.03;;;11.61;73.72
64294;BME280;50636;45.596;5.258;2022-11-03T04:22:07;98783.44;;;11.63;73.06
64294;BME280;50636;45.596;5.258;2022-11-03T04:24:46;98781.03;;;11.54;72.91
64294;BME280;50636;45.596;5.258;2022-11-03T04:27:33;98780.22;;;11.54;72.70
64294;BME280;50636;45.596;5.258;2022-11-03T04:32:33;98770.72;;;11.66;72.57
64294;BME280;50636;45.596;5.258;2022-11-03T04:34:59;98774.91;;;11.80;72.99
64294;BME280;50636;45.596;5.258;2022-11-03T04:37:28;98750.59;;;12.05;72.05
64294;BME280;50636;45.596;5.258;2022-11-03T04:39:58;98745.25;;;12.32;71.72
64294;BME280;50636;45.596;5.258;2022-11-03T04:42:30;98743.91;;;12.54;71.13
64294;BME280;50636;45.596;5.258;2022-11-03T04:45:00;98737.47;;;12.82;70.57
64294;BME280;50636;45.596;5.258;2022-11-03T04:47:27;98739.88;;;13.09;69.17
64294;BME280;50636;45.596;5.258;2022-11-03T04:49:54;98740.97;;;13.26;68.50
64294;BME280;50636;45.596;5.258;2022-11-03T04:52:21;98724.63;;;13.43;68.26
64294;BME280;50636;45.596;5.258;2022-11-03T04:54:49;98729.91;;;13.61;67.50
64294;BME280;50636;45.596;5.258;2022-11-03T04:57:17;98722.88;;;13.73;66.87
64294;BME280;50636;45.596;5.258;2022-11-03T04:59:46;98715.41;;;13.89;66.55
64294;BME280;50636;45.596;5.258;2022-11-03T05:02:14;98714.81;;;14.05;66.11
64294;BME280;50636;45.596;5.258;2022-11-03T05:04:41;98728.19;;;14.22;65.54
64294;BME280;50636;45.596;5.258;2022-11-03T05:07:29;98723.84;;;14.28;64.92
64294;BME280;50636;45.596;5.258;2022-11-03T05:09:55;98725.69;;;14.27;64.31
64294;BME280;50636;45.596;5.258;2022-11-03T05:12:22;98727.25;;;14.16;64.30
64294;BME280;50636;45.596;5.258;2022-11-03T05:14:48;98713.56;;;14.08;64.93
64294;BME280;50636;45.596;5.258;2022-11-03T05:19:43;98727.78;;;13.88;65.17
64294;BME280;50636;45.596;5.258;2022-11-03T05:22:15;98713.06;;;13.81;65.56
64294;BME280;50636;45.596;5.258;2022-11-03T05:24:43;98702.53;;;13.81;65.51
64294;BME280;50636;45.596;5.258;2022-11-03T05:27:18;98700.78;;;13.74;65.06
64294;BME280;50636;45.596;5.258;2022-11-03T05:29:46;98697.59;;;13.66;65.65
64294;BME280;50636;45.596;5.258;2022-11-03T05:32:22;98695.56;;;13.68;65.49
64294;BME280;50636;45.596;5.258;2022-11-03T05:34:50;98699.94;;;13.74;65.59
64294;BME280;50636;45.596;5.258;2022-11-03T05:37:33;98694.09;;;13.72;65.00
64294;BME280;50636;45.596;5.258;2022-11-03T05:40:05;98684.94;;;13.74;65.18
64294;BME280;50636;45.596;5.258;2022-11-03T05:42:43;98673.94;;;13.77;64.70
64294;BME280;50636;45.596;5.258;2022-11-03T05:47:49;98671.38;;;13.89;64.82
64294;BME280;50636;45.596;5.258;2022-11-03T05:50:28;98677.81;;;13.93;64.84
64294;BME280;50636;45.596;5.258;2022-11-03T05:55:48;98681.78;;;14.14;63.73
64294;BME280;50636;45.596;5.258;2022-11-03T05:58:32;98681.72;;;14.21;63.16
64294;BME280;50636;45.596;5.258;2022-11-03T06:01:00;98675.00;;;14.37;62.67
64294;BME280;50636;45.596;5.258;2022-11-03T06:03:30;98669.19;;;14.47;61.67
64294;BME280;50636;45.596;5.258;2022-11-03T06:05:56;98676.63;;;14.50;61.77
64294;BME280;50636;45.596;5.258;2022-11-03T06:08:25;98680.44;;;14.54;61.43
64294;BME280;50636;45.596;5.258;2022-11-03T06:10:54;98671.94;;;14.52;61.37
64294;BME280;50636;45.596;5.258;2022-11-03T06:13:33;98654.41;;;14.57;61.39
64294;BME280;50636;45.596;5.258;2022-11-03T06:16:16;98655.44;;;14.56;61.08
64294;BME280;50636;45.596;5.258;2022-11-03T06:18:53;98660.00;;;14.49;61.66
64294;BME280;50636;45.596;5.258;2022-11-03T06:21:23;98665.13;;;14.44;61.88
64294;BME280;50636;45.596;5.258;2022-11-03T06:23:51;98653.91;;;14.49;61.97
64294;BME280;50636;45.596;5.258;2022-11-03T06:26:20;98656.06;;;14.40;62.15
64294;BME280;50636;45.596;5.258;2022-11-03T06:28:48;98668.69;;;14.38;62.36
64294;BME280;50636;45.596;5.258;2022-11-03T06:31:20;98672.44;;;14.30;62.49
64294;BME280;50636;45.596;5.258;2022-11-03T06:33:47;98679.19;;;14.26;62.82
64294;BME280;50636;45.596;5.258;2022-11-03T06:36:25;98678.34;;;14.44;62.26
64294;BME280;50636;45.596;5.258;2022-11-03T06:39:01;98669.84;;;14.42;62.39
64294;BME280;50636;45.596;5.258;2022-11-03T06:41:31;98662.81;;;14.36;62.71
64294;BME280;50636;45.596;5.258;2022-11-03T06:44:19;98657.88;;;14.28;62.85
64294;BME280;50636;45.596;5.258;2022-11-03T06:46:46;98656.84;;;14.41;62.69
64294;BME280;50636;45.596;5.258;2022-11-03T06:49:38;98653.91;;;14.49;62.58
64294;BME280;50636;45.596;5.258;2022-11-03T06:52:40;98644.06;;;14.56;62.38
64294;BME280;50636;45.596;5.258;2022-11-03T06:57:40;98652.66;;;14.51;62.37
64294;BME280;50636;45.596;5.258;2022-11-03T07:00:26;98661.16;;;14.53;62.15
64294;BME280;50636;45.596;5.258;2022-11-03T07:03:25;98662.91;;;14.60;62.26
64294;BME280;50636;45.596;5.258;2022-11-03T07:08:34;98649.03;;;14.76;61.51
64294;BME280;50636;45.596;5.258;2022-11-03T07:11:18;98669.41;;;14.87;61.24
64294;BME280;50636;45.596;5.258;2022-11-03T07:13:46;98673.19;;;14.91;60.65
64294;BME280;50636;45.596;5.258;2022-11-03T07:16:46;98679.63;;;14.95;60.87
64294;BME280;50636;45.596;5.258;2022-11-03T07:19:18;98687.91;;;14.99;60.89
64294;BME280;50636;45.596;5.258;2022-11-03T07:21:51;98689.03;;;15.15;60.26
64294;BME280;50636;45.596;5.258;2022-11-03T07:24:26;98685.03;;;15.12;60.46
64294;BME280;50636;45.596;5.258;2022-11-03T07:27:01;98685.47;;;15.33;60.16
64294;BME280;50636;45.596;5.258;2022-11-03T07:29:31;98693.97;;;15.35;59.59
64294;BME280;50636;45.596;5.258;2022-11-03T07:31:58;98688.72;;;15.23;60.02
64294;BME280;50636;45.596;5.258;2022-11-03T07:34:30;98697.31;;;15.18;60.12
64294;BME280;50636;45.596;5.258;2022-11-03T07:36:57;98695.03;;;15.46;59.76
64294;BME280;50636;45.596;5.258;2022-11-03T07:39:31;98685.47;;;16.09;58.33
64294;BME280;50636;45.596;5.258;2022-11-03T07:41:58;98675.28;;;16.17;56.99
64294;BME280;50636;45.596;5.258;2022-11-03T07:44:23;98669.97;;;16.01;57.27
64294;BME280;50636;45.596;5.258;2022-11-03T07:46:49;98657.91;;;15.93;57.64
64294;BME280;50636;45.596;5.258;2022-11-03T07:49:26;98664.94;;;15.87;57.61
64294;BME280;50636;45.596;5.258;2022-11-03T07:51:54;98657.28;;;15.74;57.84
64294;BME280;50636;45.596;5.258;2022-11-03T07:54:27;98650.81;;;15.70;57.86
64294;BME280;50636;45.596;5.258;2022-11-03T07:57:22;98653.00;;;15.61;58.26
64294;BME280;50636;45.596;5.258;2022-11-03T08:00:00;98652.69;;;15.57;58.43
64294;BME280;50636;45.596;5.258;2022-11-03T08:02:53;98650.28;;;15.56;58.31
64294;BME280;50636;45.596;5.258;2022-11-03T08:05:16;98661.84;;;15.67;58.55
64294;BME280;50636;45.596;5.258;2022-11-03T08:07:42;98651.56;;;15.94;57.59
64294;BME280;50636;45.596;5.258;2022-11-03T08:10:08;98642.53;;;16.07;57.56
64294;BME280;50636;45.596;5.258;2022-11-03T08:12:34;98651.94;;;16.14;57.06
64294;BME280;50636;45.596;5.258;2022-11-03T08:14:59;98641.31;;;16.26;56.59
64294;BME280;50636;45.596;5.258;2022-11-03T08:17:25;98664.19;;;16.49;55.92
64294;BME280;50636;45.596;5.258;2022-11-03T08:19:51;98633.22;;;16.67;55.13
64294;BME280;50636;45.596;5.258;2022-11-03T08:22:17;98634.28;;;17.00;53.97
64294;BME280;50636;45.596;5.258;2022-11-03T08:24:43;98627.78;;;17.29;53.18
64294;BME280;50636;45.596;5.258;2022-11-03T08:27:09;98620.44;;;17.58;52.53
64294;BME280;50636;45.596;5.258;2022-11-03T08:29:34;98606.06;;;17.76;51.89
64294;BME280;50636;45.596;5.258;2022-11-03T08:32:00;98601.38;;;17.84;51.21
64294;BME280;50636;45.596;5.258;2022-11-03T08:34:26;98596.19;;;17.94;51.04
64294;BME280;50636;45.596;5.258;2022-11-03T08:36:52;98588.94;;;18.11;50.69
64294;BME280;50636;45.596;5.258;2022-11-03T08:39:18;98585.81;;;18.20;49.97
64294;BME280;50636;45.596;5.258;2022-11-03T08:41:43;98564.16;;;18.06;50.06
64294;BME280;50636;45.596;5.258;2022-11-03T08:44:09;98568.53;;;17.90;50.71
64294;BME280;50636;45.596;5.258;2022-11-03T08:46:35;98572.41;;;17.82;50.97
64294;BME280;50636;45.596;5.258;2022-11-03T08:49:00;98576.56;;;17.73;51.28
64294;BME280;50636;45.596;5.258;2022-11-03T08:51:27;98570.50;;;17.77;51.46
64294;BME280;50636;45.596;5.258;2022-11-03T08:53:53;98574.63;;;17.90;50.75
64294;BME280;50636;45.596;5.258;2022-11-03T08:56:19;98588.44;;;17.87;50.81
64294;BME280;50636;45.596;5.258;2022-11-03T08:58:46;98556.47;;;17.82;50.88
64294;BME280;50636;45.596;5.258;2022-11-03T09:01:12;98568.75;;;17.83;50.85
64294;BME280;50636;45.596;5.258;2022-11-03T09:03:39;98563.09;;;17.80;51.15
64294;BME280;50636;45.596;5.258;2022-11-03T09:06:05;98560.44;;;17.80;51.20
64294;BME280;50636;45.596;5.258;2022-11-03T09:08:31;98560.19;;;17.81;51.22
64294;BME280;50636;45.596;5.258;2022-11-03T09:10:56;98557.22;;;17.77;51.36
64294;BME280;50636;45.596;5.258;2022-11-03T09:13:22;98547.38;;;17.73;51.63
64294;BME280;50636;45.596;5.258;2022-11-03T09:15:48;98535.44;;;17.75;51.22
64294;BME280;50636;45.596;5.258;2022-11-03T09:18:14;98539.13;;;17.74;51.24
64294;BME280;50636;45.596;5.258;2022-11-03T09:20:40;98527.69;;;17.69;51.63
64294;BME280;50636;45.596;5.258;2022-11-03T09:23:06;98516.25;;;17.68;51.28
64294;BME280;50636;45.596;5.258;2022-11-03T09:25:31;98521.00;;;17.66;51.61
64294;BME280;50636;45.596;5.258;2022-11-03T09:27:57;98524.19;;;17.63;50.99
64294;BME280;50636;45.596;5.258;2022-11-03T09:30:23;98510.84;;;17.58;51.62
64294;BME280;50636;45.596;5.258;2022-11-03T09:32:49;98510.59;;;17.60;52.91
64294;BME280;50636;45.596;5.258;2022-11-03T09:35:14;98497.28;;;17.54;52.44
64294;BME280;50636;45.596;5.258;2022-11-03T09:37:41;98484.00;;;17.54;52.75
64294;BME280;50636;45.596;5.258;2022-11-03T09:40:09;98489.59;;;17.53;53.59
64294;BME280;50636;45.596;5.258;2022-11-03T09:42:38;98494.88;;;17.53;52.46
64294;BME280;50636;45.596;5.258;2022-11-03T09:45:06;98502.00;;;17.47;52.48
64294;BME280;50636;45.596;5.258;2022-11-03T09:47:36;98491.94;;;17.49;52.52
64294;BME280;50636;45.596;5.258;2022-11-03T09:50:04;98478.41;;;17.51;51.75
64294;BME280;50636;45.596;5.258;2022-11-03T09:52:30;98459.78;;;17.46;52.00
64294;BME280;50636;45.596;5.258;2022-11-03T09:54:56;98462.22;;;17.52;51.33
64294;BME280;50636;45.596;5.258;2022-11-03T09:57:26;98466.41;;;17.43;51.79
64294;BME280;50636;45.596;5.258;2022-11-03T09:59:53;98459.22;;;17.44;52.56
64294;BME280;50636;45.596;5.258;2022-11-03T10:02:31;98468.28;;;17.48;52.23
64294;BME280;50636;45.596;5.258;2022-11-03T10:04:58;98479.34;;;17.40;52.24
64294;BME280;50636;45.596;5.258;2022-11-03T10:07:27;98480.97;;;17.41;52.39
64294;BME280;50636;45.596;5.258;2022-11-03T10:09:55;98495.34;;;17.45;52.71
64294;BME280;50636;45.596;5.258;2022-11-03T10:12:23;98490.41;;;17.58;52.41
64294;BME280;50636;45.596;5.258;2022-11-03T10:14:50;98486.66;;;17.82;51.33
64294;BME280;50636;45.596;5.258;2022-11-03T10:17:19;98484.59;;;17.84;51.14
64294;BME280;50636;45.596;5.258;2022-11-03T10:19:51;98473.19;;;17.88;50.83
64294;BME280;50636;45.596;5.258;2022-11-03T10:22:20;98475.56;;;17.85;50.86
64294;BME280;50636;45.596;5.258;2022-11-03T10:24:46;98460.81;;;17.72;51.25
64294;BME280;50636;45.596;5.258;2022-11-03T10:27:23;98454.81;;;17.54;51.96
64294;BME280;50636;45.596;5.258;2022-11-03T10:30:11;98437.47;;;17.42;52.09
64294;BME280;50636;45.596;5.258;2022-11-03T10:32:37;98436.56;;;17.31;52.08
64294;BME280;50636;45.596;5.258;2022-11-03T10:35:33;98416.28;;;17.20;52.66
64294;BME280;50636;45.596;5.258;2022-11-03T10:38:32;98394.22;;;17.14;52.35
64294;BME280;50636;45.596;5.258;2022-11-03T10:41:16;98397.00;;;17.02;53.01
64294;BME280;50636;45.596;5.258;2022-11-03T10:44:33;98401.16;;;16.93;52.99
64294;BME280;50636;45.596;5.258;2022-11-03T10:47:00;98393.16;;;16.88;53.08
64294;BME280;50636;45.596;5.258;2022-11-03T10:49:28;98390.50;;;16.88;53.28
64294;BME280;50636;45.596;5.258;2022-11-03T10:52:00;98397.75;;;16.97;53.34
64294;BME280;50636;45.596;5.258;2022-11-03T10:54:33;98378.28;;;17.09;52.84
64294;BME280;50636;45.596;5.258;2022-11-03T10:57:00;98365.25;;;17.07;52.72
64294;BME280;50636;45.596;5.258;2022-11-03T10:59:36;98367.84;;;17.02;52.52
64294;BME280;50636;45.596;5.258;2022-11-03T11:02:14;98354.88;;;17.01;52.26
64294;BME280;50636;45.596;5.258;2022-11-03T11:04:40;98343.44;;;17.00;52.32
64294;BME280;50636;45.596;5.258;2022-11-03T11:07:22;98353.75;;;16.96;52.52
64294;BME280;50636;45.596;5.258;2022-11-03T11:09:50;98348.91;;;16.88;52.74
64294;BME280;50636;45.596;5.258;2022-11-03T11:12:19;98335.16;;;16.91;52.80
64294;BME280;50636;45.596;5.258;2022-11-03T11:15:00;98336.94;;;17.13;52.50
64294;BME280;50636;45.596;5.258;2022-11-03T11:20:27;98316.78;;;17.12;52.11
64294;BME280;50636;45.596;5.258;2022-11-03T11:31:40;98250.94;;;17.04;52.00
64294;BME280;50636;45.596;5.258;2022-11-03T11:36:39;98259.34;;;16.90;52.46
64294;BME280;50636;45.596;5.258;2022-11-03T11:42:09;98254.00;;;16.36;55.97
64294;BME280;50636;45.596;5.258;2022-11-03T11:47:28;98276.78;;;16.15;56.86
64294;BME280;50636;45.596;5.258;2022-11-03T11:52:41;98258.31;;;16.42;55.24
64294;BME280;50636;45.596;5.258;2022-11-03T11:57:47;98272.69;;;16.51;56.41
64294;BME280;50636;45.596;5.258;2022-11-03T12:00:22;98265.19;;;16.43;56.24
64294;BME280;50636;45.596;5.258;2022-11-03T12:02:50;98272.25;;;16.32;57.34
64294;BME280;50636;45.596;5.258;2022-11-03T12:05:19;98273.03;;;16.11;58.25
64294;BME280;50636;45.596;5.258;2022-11-03T12:07:46;98256.97;;;15.95;59.75
64294;BME280;50636;45.596;5.258;2022-11-03T12:10:16;98266.16;;;15.88;59.54
64294;BME280;50636;45.596;5.258;2022-11-03T12:12:43;98255.16;;;15.79;60.18
64294;BME280;50636;45.596;5.258;2022-11-03T12:18:37;98247.19;;;15.74;63.21
64294;BME280;50636;45.596;5.258;2022-11-03T12:21:10;98243.22;;;15.37;64.98
64294;BME280;50636;45.596;5.258;2022-11-03T12:23:44;98229.75;;;14.88;67.43
64294;BME280;50636;45.596;5.258;2022-11-03T12:26:18;98222.56;;;14.55;68.99
64294;BME280;50636;45.596;5.258;2022-11-03T12:29:04;98223.81;;;14.24;71.15
64294;BME280;50636;45.596;5.258;2022-11-03T12:31:30;98226.16;;;14.08;73.17
64294;BME280;50636;45.596;5.258;2022-11-03T12:33:56;98229.66;;;13.97;74.37
64294;BME280;50636;45.596;5.258;2022-11-03T12:36:21;98219.84;;;13.81;75.78
64294;BME280;50636;45.596;5.258;2022-11-03T12:38:47;98208.59;;;13.73;76.62
64294;BME280;50636;45.596;5.258;2022-11-03T12:41:13;98199.91;;;13.61;78.02
64294;BME280;50636;45.596;5.258;2022-11-03T12:43:52;98177.91;;;13.55;79.22
64294;BME280;50636;45.596;5.258;2022-11-03T12:46:19;98180.19;;;13.52;80.33
64294;BME280;50636;45.596;5.258;2022-11-03T12:48:46;98168.06;;;13.51;81.43
64294;BME280;50636;45.596;5.258;2022-11-03T12:51:17;98154.16;;;13.55;82.22
64294;BME280;50636;45.596;5.258;2022-11-03T12:53:44;98150.38;;;13.63;83.08
64294;BME280;50636;45.596;5.258;2022-11-03T12:56:10;98143.75;;;13.61;83.31
64294;BME280;50636;45.596;5.258;2022-11-03T12:58:37;98153.38;;;13.55;84.27
64294;BME280;50636;45.596;5.258;2022-11-03T13:01:03;98166.34;;;13.56;85.38
64294;BME280;50636;45.596;5.258;2022-11-03T13:03:30;98123.66;;;13.59;84.80
64294;BME280;50636;45.596;5.258;2022-11-03T13:05:57;98094.91;;;13.58;84.67
64294;BME280;50636;45.596;5.258;2022-11-03T13:08:23;98106.38;;;13.52;84.77
64294;BME280;50636;45.596;5.258;2022-11-03T13:10:50;98116.72;;;13.42;85.83
64294;BME280;50636;45.596;5.258;2022-11-03T13:13:16;98120.06;;;13.37;86.20
64294;BME280;50636;45.596;5.258;2022-11-03T13:15:42;98103.34;;;13.31;86.85
64294;BME280;50636;45.596;5.258;2022-11-03T13:18:08;98101.59;;;13.37;87.41
64294;BME280;50636;45.596;5.258;2022-11-03T13:20:34;98111.22;;;13.43;86.67
64294;BME280;50636;45.596;5.258;2022-11-03T13:23:03;98112.34;;;13.47;85.92
64294;BME280;50636;45.596;5.258;2022-11-03T13:25:30;98124.25;;;13.50;85.81
64294;BME280;50636;45.596;5.258;2022-11-03T13:27:56;98112.69;;;13.51;85.85
64294;BME280;50636;45.596;5.258;2022-11-03T13:30:25;98096.41;;;13.54;85.12
64294;BME280;50636;45.596;5.258;2022-11-03T13:32:52;98084.34;;;13.58;84.29
64294;BME280;50636;45.596;5.258;2022-11-03T13:35:18;98082.63;;;13.64;83.54
64294;BME280;50636;45.596;5.258;2022-11-03T13:37:44;98088.22;;;13.67;84.87
64294;BME280;50636;45.596;5.258;2022-11-03T13:40:14;98084.09;;;13.71;84.93
64294;BME280;50636;45.596;5.258;2022-11-03T13:42:40;98070.53;;;13.79;85.94
64294;BME280;50636;45.596;5.258;2022-11-03T13:45:07;98058.06;;;13.92;85.85
64294;BME280;50636;45.596;5.258;2022-11-03T13:47:33;98043.69;;;13.99;84.84
64294;BME280;50636;45.596;5.258;2022-11-03T13:49:59;98038.19;;;14.01;84.74
64294;BME280;50636;45.596;5.258;2022-11-03T13:52:26;98031.41;;;14.05;84.97
64294;BME280;50636;45.596;5.258;2022-11-03T13:54:52;98025.97;;;14.12;84.83
64294;BME280;50636;45.596;5.258;2022-11-03T13:57:19;98036.84;;;14.15;84.14
64294;BME280;50636;45.596;5.258;2022-11-03T13:59:45;98038.44;;;14.16;84.10
64294;BME280;50636;45.596;5.258;2022-11-03T14:02:11;98043.69;;;14.16;84.32
64294;BME280;50636;45.596;5.258;2022-11-03T14:04:37;98047.16;;;14.17;83.87
64294;BME280;50636;45.596;5.258;2022-11-03T14:07:07;98037.16;;;14.19;83.37
64294;BME280;50636;45.596;5.258;2022-11-03T14:09:33;98043.34;;;14.25;84.46
64294;BME280;50636;45.596;5.258;2022-11-03T14:11:59;98039.78;;;14.36;85.38